Time;durP1;ratioP1;P1;durP2;ratioP2;P2;SDS_P1;SDS_P2;PMS_P1;PMS_P2;Temp;Humidity;BMP_temperature;BMP_pressure;BME280_temperature;BME280_humidity;BME280_pressure;Samples;Min_cycle;Max_cycle;Signal;HPM_P1;HPM_P2
2022/11/05 00:10:37;;;;;;;47.35;32.30;;;;;;;10.40;100.00;99855.81;5031298;28;20048;-66
2022/11/05 00:18:34;;;;;;;45.25;32.20;;;;;;;10.67;100.00;99874.53;5030731;28;20097;-67
2022/11/05 00:21:00;;;;;;;50.92;32.28;;;;;;;10.15;100.00;99786.28;5029406;28;20029;-68
2022/11/05 00:26:10;;;;;;;48.40;32.58;;;;;;;10.42;100.00;99868.47;5030611;28;20110;-67
2022/11/05 00:28:36;;;;;;;50.42;32.40;;;;;;;10.52;100.00;99805.53;5031293;28;20029;-67
2022/11/05 00:31:08;;;;;;;44.38;32.70;;;;;;;10.89;100.00;99885.72;5030838;28;20033;-67
2022/11/05 00:33:34;;;;;;;50.45;33.28;;;;;;;10.19;100.00;99823.44;5030845;28;20510;-67
2022/11/05 00:36:04;;;;;;;47.60;34.10;;;;;;;10.44;100.00;99867.56;5030575;28;20033;-67
2022/11/05 00:38:31;;;;;;;50.58;33.90;;;;;;;10.45;100.00;99810.78;5029268;28;20037;-67
2022/11/05 00:40:57;;;;;;;48.90;33.75;;;;;;;10.43;100.00;99794.75;5030415;28;20152;-67
2022/11/05 00:46:06;;;;;;;49.70;34.72;;;;;;;10.25;100.00;99790.22;5030362;28;20044;-66
2022/11/05 00:51:15;;;;;;;52.40;34.47;;;;;;;10.54;100.00;99859.69;5030604;28;20040;-67
2022/11/05 00:53:41;;;;;;;46.20;33.40;;;;;;;10.79;100.00;99830.09;5030054;28;20029;-67
2022/11/05 00:56:06;;;;;;;49.58;33.20;;;;;;;10.43;100.00;99786.28;5030060;28;20575;-68
2022/11/05 00:58:32;;;;;;;49.67;34.95;;;;;;;10.56;100.00;99837.59;5030560;28;20040;-67
2022/11/05 01:00:59;;;;;;;53.03;34.95;;;;;;;10.27;100.00;99810.50;5030297;28;20029;-68
2022/11/05 01:03:28;;;;;;;53.90;35.47;;;;;;;10.37;100.00;99861.00;5029933;28;20033;-67
2022/11/05 01:05:56;;;;;;;50.97;33.40;;;;;;;10.32;100.00;99812.03;5029918;28;20034;-67
2022/11/05 01:08:23;;;;;;;49.10;34.25;;;;;;;9.93;100.00;99726.81;5030196;28;20025;-67
2022/11/05 01:10:52;;;;;;;53.25;35.00;;;;;;;9.95;100.00;99796.16;5030072;28;20033;-66
2022/11/05 01:13:19;;;;;;;53.80;35.85;;;;;;;9.90;100.00;99789.56;5030277;28;20447;-67
2022/11/05 01:15:46;;;;;;;51.72;33.97;;;;;;;9.53;100.00;99723.75;5030312;28;20041;-66
2022/11/05 01:18:12;;;;;;;50.20;34.30;;;;;;;10.20;100.00;99844.59;5030290;28;20107;-69
2022/11/05 01:20:38;;;;;;;48.78;34.13;;;;;;;9.63;100.00;99763.22;5030164;28;20073;-67
2022/11/05 01:23:03;;;;;;;48.83;34.65;;;;;;;9.65;100.00;99796.19;5029937;28;20389;-66
2022/11/05 01:25:29;;;;;;;54.17;36.00;;;;;;;10.34;100.00;99842.47;5029718;28;20021;-67
2022/11/05 01:27:54;;;;;;;54.70;38.53;;;;;;;9.49;100.00;99765.28;5030235;28;20478;-67
2022/11/05 01:30:20;;;;;;;55.10;37.78;;;;;;;9.83;100.00;99815.97;5030067;28;20033;-67
2022/11/05 01:32:46;;;;;;;55.83;37.42;;;;;;;9.97;100.00;99837.56;5029810;28;20029;-68
2022/11/05 01:35:13;;;;;;;55.08;36.47;;;;;;;10.17;100.00;99826.88;5028658;28;20411;-67
2022/11/05 01:37:39;;;;;;;52.40;35.72;;;;;;;9.49;100.00;99767.84;5032575;28;20095;-66
2022/11/05 01:40:06;;;;;;;50.15;35.63;;;;;;;9.66;100.00;99825.75;5033799;28;20443;-66
2022/11/05 01:42:33;;;;;;;51.72;36.40;;;;;;;9.68;100.00;99771.56;5032777;28;20348;-66
2022/11/05 01:45:11;;;;;;;52.17;37.33;;;;;;;9.52;100.00;99767.78;5034012;28;20049;-66
2022/11/05 01:48:23;;;;;;;54.20;38.22;;;;;;;9.48;100.00;99822.00;5033490;28;20029;-67
2022/11/05 01:51:00;;;;;;;57.58;37.20;;;;;;;9.94;100.00;99826.69;5025190;28;20041;-68
2022/11/05 01:53:33;;;;;;;56.25;38.22;;;;;;;9.52;100.00;99750.00;5033737;28;20104;-68
2022/11/05 01:56:10;;;;;;;60.88;38.40;;;;;;;9.94;100.00;99812.28;5033842;28;20025;-67
2022/11/05 01:58:47;;;;;;;56.67;37.72;;;;;;;9.57;100.00;99763.38;5033392;28;20032;-68
2022/11/05 02:01:13;;;;;;;53.53;36.80;;;;;;;9.79;100.00;99784.75;5033678;28;20026;-68
2022/11/05 02:03:40;;;;;;;55.15;37.95;;;;;;;10.05;100.00;99807.72;5033311;28;20538;-69
2022/11/05 02:06:08;;;;;;;52.80;37.50;;;;;;;9.44;100.00;99693.56;5032167;28;20087;-69
2022/11/05 02:08:34;;;;;;;55.53;38.67;;;;;;;10.39;100.00;99823.69;5033534;28;20025;-68
2022/11/05 02:10:59;;;;;;;60.35;39.08;;;;;;;10.38;100.00;99814.38;5033272;28;20472;-68
2022/11/05 02:13:24;;;;;;;57.30;38.63;;;;;;;10.09;100.00;99765.28;5033318;28;20524;-68
2022/11/05 02:16:07;;;;;;;67.35;40.22;;;;;;;10.26;100.00;99826.63;5032983;28;20539;-68
2022/11/05 02:18:39;;;;;;;61.22;38.70;;;;;;;9.93;100.00;99833.44;5033202;28;20025;-68
2022/11/05 02:21:30;;;;;;;56.53;37.28;;;;;;;10.02;100.00;99832.38;5031859;28;20672;-68
2022/11/05 02:24:22;;;;;;;57.13;38.15;;;;;;;9.76;100.00;99833.09;5032678;28;20427;-68
2022/11/05 02:27:00;;;;;;;;;;;;;;;9.70;100.00;99819.72;5033609;28;20033;-68
2022/11/05 02:30:04;;;;;;;56.80;38.35;;;;;;;9.70;100.00;99812.94;5031827;28;20311;-67
2022/11/05 02:32:59;;;;;;;65.75;38.47;;;;;;;9.53;100.00;99810.00;5015749;28;20034;-68
2022/11/05 02:35:44;;;;;;;57.92;37.35;;;;;;;9.75;100.00;99793.34;5012234;28;20082;-70
2022/11/05 02:38:23;;;;;;;59.92;37.92;;;;;;;9.93;100.00;99799.59;5011984;28;20029;-68
2022/11/05 02:41:05;;;;;;;62.10;39.20;;;;;;;9.53;100.00;99792.25;5013239;28;20108;-68
2022/11/05 02:43:38;;;;;;;54.53;36.97;;;;;;;9.44;100.00;99754.47;5012670;28;20054;-69
2022/11/05 02:46:33;;;;;;;55.00;38.28;;;;;;;9.97;100.00;99798.66;5012874;28;20493;-68
2022/11/05 02:49:23;;;;;;;63.25;37.60;;;;;;;9.97;100.00;99803.72;5010184;28;20044;-69
2022/11/05 02:51:57;;;;;;;66.50;39.67;;;;;;;9.97;100.00;99807.09;5012794;28;20052;-68
2022/11/05 02:54:45;;;;;;;58.80;39.08;;;;;;;10.07;100.00;99807.66;5013071;28;20572;-68
2022/11/05 02:57:10;;;;;;;59.20;38.85;;;;;;;9.94;100.00;99780.97;5012602;28;20149;-68
2022/11/05 02:59:35;;;;;;;61.97;39.25;;;;;;;9.67;100.00;99744.50;5012986;28;20112;-68
2022/11/05 03:02:03;;;;;;;64.28;39.28;;;;;;;9.95;100.00;99796.16;5011220;28;20120;-67
2022/11/05 03:04:31;;;;;;;61.58;38.83;;;;;;;10.13;100.00;99803.28;5012306;28;20095;-67
2022/11/05 03:06:56;;;;;;;63.42;41.22;;;;;;;10.03;100.00;99812.00;5012293;28;20030;-68
2022/11/05 03:09:53;;;;;;;60.42;39.35;;;;;;;9.87;100.00;99804.84;5012575;28;20400;-67
2022/11/05 03:13:03;;;;;;;61.97;41.20;;;;;;;9.85;100.00;99801.53;5012478;28;20033;-67
2022/11/05 03:15:37;;;;;;;65.32;40.63;;;;;;;9.81;100.00;99812.63;5011014;28;20053;-67
2022/11/05 03:18:13;;;;;;;65.72;41.55;;;;;;;9.30;100.00;99764.97;5011939;28;20425;-67
2022/11/05 03:20:50;;;;;;;57.88;35.33;;;;;;;9.16;100.00;99827.91;5012186;28;20032;-69
2022/11/05 03:23:50;;;;;;;59.65;34.83;;;;;;;8.74;100.00;99833.97;5012408;28;20117;-66
2022/11/05 03:26:23;;;;;;;49.20;33.65;;;;;;;8.75;100.00;99844.06;5011958;28;20022;-67
2022/11/05 03:28:54;;;;;;;48.70;32.67;;;;;;;8.40;100.00;99785.78;5012087;28;20042;-67
2022/11/05 03:31:22;;;;;;;49.65;33.38;;;;;;;8.42;100.00;99800.94;5017057;28;20119;-66
2022/11/05 03:33:50;;;;;;;50.28;33.67;;;;;;;8.61;100.00;99828.38;5031571;28;20487;-65
2022/11/05 03:36:22;;;;;;;57.53;32.88;;;;;;;8.56;100.00;99814.13;5030265;28;20056;-66
2022/11/05 03:38:53;;;;;;;52.20;34.65;;;;;;;8.53;100.00;99822.66;5031615;28;20116;-65
2022/11/05 03:41:20;;;;;;;56.03;33.88;;;;;;;8.76;100.00;99814.50;5030296;28;20033;-65
2022/11/05 03:43:50;;;;;;;53.90;33.15;;;;;;;8.66;100.00;99831.63;5031368;28;20085;-69
2022/11/05 03:46:23;;;;;;;47.85;32.10;;;;;;;8.46;100.00;99755.25;5030346;28;20427;-68
2022/11/05 03:48:52;;;;;;;49.85;33.72;;;;;;;8.84;100.00;99827.84;5031682;28;20053;-68
2022/11/05 03:51:29;;;;;;;56.38;34.88;;;;;;;8.79;100.00;99822.06;5029881;28;20072;-69
2022/11/05 03:53:58;;;;;;;53.75;35.10;;;;;;;8.41;100.00;99817.84;5031161;28;20199;-69
2022/11/05 03:56:30;;;;;;;58.58;35.80;;;;;;;8.57;100.00;99745.72;5030265;28;20488;-68
2022/11/05 03:58:58;;;;;;;58.60;35.08;;;;;;;8.03;100.00;99696.28;5029360;28;20480;-68
2022/11/05 04:01:24;;;;;;;55.63;35.95;;;;;;;8.54;100.00;99747.47;5031118;28;20029;-68
2022/11/05 04:03:49;;;;;;;55.65;37.08;;;;;;;8.50;100.00;99804.13;5030786;28;20385;-68
2022/11/05 04:14:34;;;;;;;47.22;32.58;;;;;;;8.53;100.00;99743.28;5022121;28;20076;-73
2022/11/05 04:17:08;;;;;;;49.28;33.13;;;;;;;8.83;100.00;99808.44;5029817;28;20156;-69
2022/11/05 04:25:16;;;;;;;48.75;32.90;;;;;;;8.50;100.00;99743.31;5025121;28;20031;-71
2022/11/05 04:27:43;;;;;;;63.80;32.10;;;;;;;10.70;100.00;99805.78;5021887;28;20059;-76
2022/11/05 04:30:17;;;;;;;47.90;32.55;;;;;;;9.90;100.00;99813.25;5016819;28;20037;-71
2022/11/05 04:32:58;;;;;;;49.30;31.60;;;;;;;9.06;100.00;99820.53;5011871;28;20453;-70
2022/11/05 04:35:25;;;;;;;52.30;32.83;;;;;;;8.44;100.00;99763.72;5029031;28;20033;-69
2022/11/05 04:37:51;;;;;;;50.63;33.97;;;;;;;8.85;100.00;99788.13;5029799;28;20029;-70
2022/11/05 04:40:16;;;;;;;51.17;33.05;;;;;;;8.58;100.00;99810.69;5031077;28;20029;-69
2022/11/05 04:42:41;;;;;;;50.70;34.25;;;;;;;8.97;100.00;99775.97;5030872;28;20033;-70
2022/11/05 04:45:07;;;;;;;53.38;36.33;;;;;;;8.89;100.00;99810.81;5028732;28;20132;-70
2022/11/05 04:47:32;;;;;;;61.15;37.33;;;;;;;8.77;100.00;99813.66;5030286;28;20090;-70
2022/11/05 04:49:58;;;;;;;60.70;40.95;;;;;;;8.70;100.00;99830.69;5030546;28;20385;-71
2022/11/05 04:52:23;;;;;;;55.78;38.67;;;;;;;8.80;100.00;99815.25;5030706;28;20037;-70
2022/11/05 04:54:48;;;;;;;57.85;39.67;;;;;;;8.63;100.00;99821.56;5029040;28;20029;-70
2022/11/05 04:57:14;;;;;;;58.97;38.30;;;;;;;8.25;100.00;99783.59;5030019;28;20484;-70
2022/11/05 04:59:40;;;;;;;56.88;36.60;;;;;;;8.49;100.00;99821.03;5028783;28;20078;-69
2022/11/05 05:02:05;;;;;;;56.08;35.75;;;;;;;8.66;100.00;99831.63;5030918;28;20548;-70
2022/11/05 05:04:30;;;;;;;54.67;38.03;;;;;;;7.99;100.00;99818.69;5030864;28;20037;-70
2022/11/05 05:06:56;;;;;;;56.42;40.38;;;;;;;8.08;100.00;99830.34;5031046;28;20029;-70
2022/11/05 05:09:21;;;;;;;62.90;42.92;;;;;;;8.21;100.00;99832.59;5030716;28;20187;-70
2022/11/05 05:11:47;;;;;;;56.20;39.70;;;;;;;8.31;100.00;99825.66;5029813;28;20523;-71
2022/11/05 05:14:12;;;;;;;56.88;39.05;;;;;;;8.57;100.00;99849.56;5030311;28;20424;-70
2022/11/05 05:16:37;;;;;;;66.55;40.85;;;;;;;7.97;100.00;99759.69;5030217;28;20033;-70
2022/11/05 05:19:03;;;;;;;61.63;40.88;;;;;;;8.24;100.00;99821.56;5030159;28;20026;-72
2022/11/05 05:21:37;;;;;;;59.90;41.00;;;;;;;8.62;100.00;99841.84;5030196;28;20385;-70
2022/11/05 05:24:04;;;;;;;66.43;41.67;;;;;;;8.30;100.00;99778.44;5030526;28;20030;-71
2022/11/05 05:26:30;;;;;;;64.15;40.70;;;;;;;8.46;100.00;99808.44;5030698;28;20037;-70
2022/11/05 05:28:55;;;;;;;64.93;40.75;;;;;;;8.29;100.00;99789.41;5030457;28;20021;-70
2022/11/05 05:31:21;;;;;;;58.75;40.58;;;;;;;7.71;100.00;99736.63;5030014;28;20021;-71
2022/11/05 05:33:47;;;;;;;60.00;42.03;;;;;;;8.73;100.00;99870.34;5030186;28;20116;-70
2022/11/05 05:36:13;;;;;;;64.70;43.72;;;;;;;8.45;100.00;99804.25;5030446;28;20243;-71
2022/11/05 05:38:39;;;;;;;64.00;42.65;;;;;;;8.88;100.00;99874.22;5028873;28;20199;-71
2022/11/05 05:41:04;;;;;;;62.38;42.03;;;;;;;8.46;100.00;99830.38;5030093;28;20029;-70
2022/11/05 05:43:31;;;;;;;70.93;42.22;;;;;;;8.19;100.00;99790.44;5030314;28;20049;-71
2022/11/05 05:46:01;;;;;;;58.38;38.97;;;;;;;8.56;100.00;99834.38;5030097;28;20507;-70
2022/11/05 05:48:26;;;;;;;60.90;39.20;;;;;;;8.96;100.00;99865.56;5029910;28;20021;-70
2022/11/05 05:50:52;;;;;;;66.97;38.00;;;;;;;8.79;100.00;99841.47;5030184;28;20038;-70
2022/11/05 05:53:17;;;;;;;62.25;39.15;;;;;;;9.05;100.00;99882.28;5030270;28;20069;-69
2022/11/05 05:55:43;;;;;;;60.40;38.22;;;;;;;9.07;100.00;99855.19;5028653;28;20081;-70
2022/11/05 05:58:08;;;;;;;60.10;37.50;;;;;;;9.25;100.00;99872.50;5030359;28;20028;-71
2022/11/05 06:00:34;;;;;;;60.15;38.30;;;;;;;9.31;100.00;99907.88;5030016;28;20028;-71
2022/11/05 06:02:59;;;;;;;60.00;38.50;;;;;;;9.22;100.00;99891.16;5030016;28;20115;-70
2022/11/05 06:05:25;;;;;;;61.28;38.38;;;;;;;9.61;100.00;99894.41;5028378;28;20099;-71
2022/11/05 06:07:55;;;;;;;66.07;38.65;;;;;;;9.35;100.00;99906.88;5028811;28;20044;-71
2022/11/05 06:10:20;;;;;;;99.00;49.97;;;;;;;9.09;100.00;99906.69;5029929;28;20034;-70
2022/11/05 06:12:46;;;;;;;110.07;53.20;;;;;;;8.55;100.00;99823.44;5029891;28;20049;-71
2022/11/05 06:15:11;;;;;;;102.05;50.83;;;;;;;9.51;100.00;99901.41;5030062;28;20430;-71
2022/11/05 06:17:36;;;;;;;95.65;49.83;;;;;;;8.77;100.00;99805.22;5030290;28;20042;-70
2022/11/05 06:20:02;;;;;;;96.22;49.42;;;;;;;9.50;100.00;99840.56;5030185;28;20408;-70
2022/11/05 06:22:28;;;;;;;104.90;52.42;;;;;;;9.46;100.00;99855.03;5029580;28;20025;-72
2022/11/05 06:24:53;;;;;;;102.35;52.05;;;;;;;9.81;100.00;99892.19;5032395;28;20467;-71
2022/11/05 06:27:18;;;;;;;94.97;49.30;;;;;;;9.66;100.00;99846.06;5032026;28;20415;-72
2022/11/05 06:29:44;;;;;;;88.72;49.65;;;;;;;10.00;100.00;99887.47;5033439;28;20045;-71
2022/11/05 06:32:09;;;;;;;92.28;51.53;;;;;;;10.23;100.00;99875.81;5033218;28;20068;-71
2022/11/05 06:34:35;;;;;;;88.53;50.25;;;;;;;10.90;100.00;99914.50;5032084;28;20029;-71
2022/11/05 06:37:01;;;;;;;97.28;53.65;;;;;;;10.57;100.00;99928.22;5031645;28;20128;-71
2022/11/05 06:39:26;;;;;;;95.75;52.63;;;;;;;11.37;100.00;99941.84;5033113;28;20037;-72
2022/11/05 06:41:52;;;;;;;93.68;51.97;;;;;;;11.33;100.00;99940.25;5031270;28;20124;-72
2022/11/05 06:44:17;;;;;;;90.15;50.35;;;;;;;10.92;100.00;99930.53;5032493;28;20099;-72
2022/11/05 06:46:42;;;;;;;81.18;47.78;;;;;;;11.34;100.00;99922.44;5032872;28;20431;-71
2022/11/05 06:49:08;;;;;;;87.10;49.92;;;;;;;11.08;100.00;99906.31;5031455;28;20025;-70
2022/11/05 06:51:33;;;;;;;91.93;50.75;;;;;;;10.59;100.00;99868.00;5032301;28;20528;-71
2022/11/05 06:53:58;;;;;;;89.13;51.63;;;;;;;10.44;100.00;99867.56;5033006;28;20022;-72
2022/11/05 06:56:24;;;;;;;87.00;49.78;;;;;;;10.72;100.00;99829.44;5033008;28;20022;-70
2022/11/05 06:58:49;;;;;;;83.68;50.40;;;;;;;11.41;100.00;99904.41;5032680;28;20435;-70
2022/11/05 07:01:15;;;;;;;92.80;49.63;;;;;;;11.22;100.00;99949.97;5032631;28;20029;-70
2022/11/05 07:03:41;;;;;;;83.57;47.40;;;;;;;11.50;100.00;99938.03;5032863;28;20535;-74
2022/11/05 07:06:06;;;;;;;83.68;47.42;;;;;;;11.76;100.00;99943.13;5032613;28;20419;-70
2022/11/05 07:08:36;;;;;;;80.72;47.90;;;;;;;11.24;100.00;99859.97;5031454;28;20037;-71
2022/11/05 07:11:02;;;;;;;82.05;48.10;;;;;;;11.75;100.00;99949.09;5033076;28;20072;-71
2022/11/05 07:13:27;;;;;;;77.15;49.00;;;;;;;11.30;100.00;99897.94;5032537;28;20040;-72
2022/11/05 07:15:53;;;;;;;77.18;49.00;;;;;;;12.02;100.00;99939.72;5032380;28;20026;-71
2022/11/05 07:18:19;;;;;;;79.95;47.97;;;;;;;11.74;100.00;99839.66;5032359;28;20120;-73
2022/11/05 07:20:44;;;;;;;88.75;50.53;;;;;;;11.89;100.00;99921.44;5032349;28;20030;-71
2022/11/05 07:23:12;;;;;;;81.40;47.67;;;;;;;12.31;100.00;99929.31;5032684;28;20407;-70
2022/11/05 07:25:37;;;;;;;82.43;48.72;;;;;;;12.02;100.00;99891.28;5032362;28;20045;-71
2022/11/05 07:28:04;;;;;;;92.88;51.83;;;;;;;12.28;100.00;99941.34;5031769;28;20029;-71
2022/11/05 07:30:31;;;;;;;88.93;54.97;;;;;;;11.92;100.00;99882.31;5031068;28;20052;-71
2022/11/05 07:32:56;;;;;;;86.88;53.95;;;;;;;12.55;100.00;99918.22;5032418;28;20022;-71
2022/11/05 07:35:22;;;;;;;82.35;50.90;;;;;;;12.14;100.00;99931.63;5031690;28;20095;-71
2022/11/05 07:37:49;;;;;;;79.93;49.17;;;;;;;12.30;100.00;99924.28;5030156;28;20422;-71
2022/11/05 07:40:17;;;;;;;77.28;49.72;;;;;;;12.00;100.00;99918.53;5031469;28;20488;-71
2022/11/05 07:42:55;;;;;;;76.60;46.83;;;;;;;12.52;100.00;99889.47;5031950;28;20072;-71
2022/11/05 07:45:21;;;;;;;76.47;46.88;;;;;;;12.10;100.00;99823.88;5030987;28;20481;-71
2022/11/05 07:47:52;;;;;;;74.35;48.00;;;;;;;12.49;100.00;99885.31;5032080;28;20090;-71
2022/11/05 07:50:20;;;;;;;69.18;46.65;;;;;;;12.35;100.00;99942.78;5030749;28;20025;-71
2022/11/05 07:52:47;;;;;;;72.55;47.97;;;;;;;12.31;100.00;99880.03;5031973;28;20095;-71
2022/11/05 07:55:13;;;;;;;76.88;48.13;;;;;;;12.63;100.00;99925.59;5031736;28;20099;-71
2022/11/05 07:57:49;;;;;;;73.00;48.30;;;;;;;12.48;100.00;99875.97;5030237;28;20084;-70
2022/11/05 08:00:22;;;;;;;73.47;48.60;;;;;;;12.16;100.00;99855.97;5031622;28;20064;-74
2022/11/05 08:03:27;;;;;;;75.30;48.45;;;;;;;12.82;100.00;99919.72;5031507;28;20056;-69
2022/11/05 08:05:52;;;;;;;70.70;48.15;;;;;;;12.62;100.00;99918.81;5017070;28;20531;-71
2022/11/05 08:08:19;;;;;;;76.10;47.00;;;;;;;12.25;100.00;99819.94;5030139;28;20030;-71
2022/11/05 08:10:45;;;;;;;69.78;46.92;;;;;;;13.35;100.00;99917.66;5031433;28;20033;-70
2022/11/05 08:13:12;;;;;;;79.85;51.53;;;;;;;12.90;100.00;99889.66;5031726;28;20033;-70
2022/11/05 08:15:38;;;;;;;70.65;48.03;;;;;;;12.91;100.00;99875.19;5031119;28;20068;-70
2022/11/05 08:18:05;;;;;;;71.22;48.45;;;;;;;12.73;100.00;99858.88;5031208;28;20029;-71
2022/11/05 08:20:32;;;;;;;73.72;51.70;;;;;;;12.77;100.00;99903.78;5031048;28;20381;-69
2022/11/05 08:22:58;;;;;;;80.80;56.53;;;;;;;12.79;100.00;99857.81;5029869;28;20431;-71
2022/11/05 08:25:24;;;;;;;76.53;56.05;;;;;;;13.39;100.00;99913.28;5029767;28;20033;-71
2022/11/05 08:28:04;;;;;;;75.18;54.55;;;;;;;12.60;100.00;99842.38;5031361;28;20061;-70
2022/11/05 08:30:31;;;;;;;73.35;51.97;;;;;;;12.76;100.00;99906.38;5029886;28;20068;-70
2022/11/05 08:32:58;;;;;;;73.88;50.28;;;;;;;12.82;100.00;99895.94;5030964;28;20037;-70
2022/11/05 08:35:25;;;;;;;78.93;52.78;;;;;;;13.04;100.00;99873.84;5031068;28;20523;-70
2022/11/05 08:37:50;;;;;;;75.38;52.80;;;;;;;12.76;100.00;99796.69;5031237;28;20040;-70
2022/11/05 08:40:15;;;;;;;71.55;51.83;;;;;;;13.35;100.00;99871.69;5031314;28;20030;-69
2022/11/05 08:42:41;;;;;;;75.07;51.58;;;;;;;13.83;100.00;99904.59;5030748;28;20464;-71
2022/11/05 08:45:07;;;;;;;70.50;49.72;;;;;;;13.54;100.00;99848.78;5030541;28;20049;-71
2022/11/05 08:47:32;;;;;;;74.78;53.20;;;;;;;13.68;100.00;99828.59;5029825;28;20045;-70
2022/11/05 08:49:58;;;;;;;77.68;53.15;;;;;;;13.63;100.00;99902.88;5030811;28;20087;-70
2022/11/05 08:52:23;;;;;;;75.60;52.65;;;;;;;13.67;100.00;99802.22;5030578;28;20116;-71
2022/11/05 08:54:49;;;;;;;75.75;52.72;;;;;;;13.63;100.00;99902.88;5030504;28;20483;-74
2022/11/05 08:57:14;;;;;;;81.05;53.35;;;;;;;14.18;100.00;99898.78;5029464;28;20032;-72
2022/11/05 08:59:39;;;;;;;70.13;52.20;;;;;;;14.26;100.00;99824.31;5030457;28;20033;-72
2022/11/05 09:02:05;;;;;;;69.75;51.47;;;;;;;14.01;100.00;99828.84;5029197;28;20459;-70
2022/11/05 09:04:31;;;;;;;68.05;50.53;;;;;;;14.40;100.00;99862.91;5030831;28;20180;-71
2022/11/05 09:06:56;;;;;;;77.55;50.30;;;;;;;14.65;100.00;99853.19;5030566;28;20040;-72
2022/11/05 09:09:21;;;;;;;78.85;50.38;;;;;;;14.73;100.00;99887.78;5030630;28;20080;-71
2022/11/05 09:11:47;;;;;;;70.45;49.40;;;;;;;15.17;100.00;99895.09;5030597;28;20037;-71
2022/11/05 09:14:12;;;;;;;70.93;49.53;;;;;;;14.63;100.00;99779.06;5029389;28;20050;-72
2022/11/05 09:16:38;;;;;;;73.20;49.80;;;;;;;15.18;100.00;99833.53;5030439;28;20031;-70
2022/11/05 09:19:03;;;;;;;66.90;48.40;;;;;;;15.59;100.00;99883.59;5029433;28;20124;-70
2022/11/05 09:21:30;;;;;;;72.35;50.70;;;;;;;15.29;100.00;99892.75;5028824;28;20037;-71
2022/11/05 09:23:55;;;;;;;68.32;47.88;;;;;;;15.71;100.00;99886.47;5029386;28;20060;-72
2022/11/05 09:26:21;;;;;;;71.53;48.45;;;;;;;15.40;100.00;99882.81;5030866;28;20065;-71
2022/11/05 09:28:46;;;;;;;69.88;47.67;;;;;;;15.49;100.00;99892.63;5030806;28;20107;-71
2022/11/05 09:31:12;;;;;;;68.50;46.15;;;;;;;15.93;100.00;99875.03;5030313;28;20037;-71
2022/11/05 09:33:39;;;;;;;72.05;48.53;;;;;;;15.91;100.00;99904.19;5028707;28;20029;-71
2022/11/05 09:36:05;;;;;;;68.72;47.05;;;;;;;15.34;100.00;99898.50;5028722;28;20029;-71
2022/11/05 09:38:33;;;;;;;67.28;46.28;;;;;;;16.12;100.00;99880.03;5029850;28;20036;-71
2022/11/05 09:41:12;;;;;;;67.40;47.05;;;;;;;15.74;100.00;99809.41;5028827;28;20029;-70
2022/11/05 09:43:43;;;;;;;67.80;46.72;;;;;;;16.16;100.00;99819.97;5029963;28;20057;-71
2022/11/05 09:46:32;;;;;;;68.13;46.55;;;;;;;16.79;100.00;99870.41;5030101;28;20029;-71
2022/11/05 09:49:03;;;;;;;64.22;44.60;;;;;;;16.43;100.00;99827.00;5029836;28;20515;-72
2022/11/05 09:51:30;;;;;;;62.88;45.65;;;;;;;16.45;100.00;99865.41;5030235;28;20048;-70
2022/11/05 09:53:58;;;;;;;58.67;45.92;;;;;;;16.51;100.00;99854.03;5029043;28;20076;-70
2022/11/05 09:56:27;;;;;;;61.63;44.83;;;;;;;16.56;100.00;99852.84;5028362;28;20088;-71
2022/11/05 09:59:04;;;;;;;61.13;44.65;;;;;;;16.90;100.00;99856.97;5033465;28;20083;-71
2022/11/05 10:01:34;;;;;;;53.35;41.05;;;;;;;16.67;100.00;99755.56;5032765;28;20040;-71
2022/11/05 10:04:06;;;;;;;64.68;42.85;;;;;;;17.19;100.00;99864.69;5033727;28;20026;-71
2022/11/05 10:06:31;;;;;;;;;;;;;;;17.29;100.00;99850.41;5032908;28;20040;-72
2022/11/05 10:09:05;;;;;;;62.08;43.03;;;;;;;16.73;100.00;99814.25;5033921;28;19913;-72
2022/11/05 10:11:37;;;;;;;55.42;42.08;;;;;;;17.09;100.00;99848.13;5032425;28;20037;-71
2022/11/05 10:14:16;;;;;;;62.17;43.42;;;;;;;17.28;100.00;99856.47;5032061;28;20099;-71
2022/11/05 10:16:47;;;;;;;56.28;41.35;;;;;;;17.42;100.00;99813.72;5032331;28;20478;-74
2022/11/05 10:19:23;;;;;;;57.60;41.92;;;;;;;17.69;100.00;99809.56;5032064;28;20033;-73
2022/11/05 10:22:09;;;;;;;53.63;39.15;;;;;;;17.81;100.00;99804.50;5032304;28;20037;-72
2022/11/05 10:24:35;;;;;;;52.85;38.92;;;;;;;17.67;100.00;99803.69;5033237;28;20150;-72
2022/11/05 10:27:01;;;;;;;52.85;39.88;;;;;;;17.97;100.00;99843.81;5033749;28;20021;-71
2022/11/05 10:29:29;;;;;;;51.45;38.63;;;;;;;18.42;100.00;99835.00;5031612;28;20125;-74
2022/11/05 10:31:56;;;;;;;55.97;39.03;;;;;;;17.95;100.00;99808.78;5033343;28;20471;-71
2022/11/05 10:34:29;;;;;;;55.30;39.85;;;;;;;17.56;100.00;99835.16;5033399;28;20108;-72
2022/11/05 10:36:55;;;;;;;49.65;37.35;;;;;;;17.71;100.00;99748.53;5033551;28;20091;-72
2022/11/05 10:39:22;;;;;;;54.80;37.00;;;;;;;18.24;100.00;99815.56;5031963;28;20025;-71
2022/11/05 10:42:09;;;;;;;52.08;38.28;;;;;;;18.52;100.00;99789.75;5031761;28;20476;-73
2022/11/05 10:45:11;;;;;;;52.00;37.30;;;;;;;18.41;100.00;99828.22;5033174;28;20548;-73
2022/11/05 10:47:48;;;;;;;47.40;36.92;;;;;;;18.79;100.00;99826.66;5033403;28;20155;-72
2022/11/05 10:50:22;;;;;;;50.50;36.63;;;;;;;18.66;100.00;99805.16;5032222;28;20041;-73
2022/11/05 10:52:57;;;;;;;51.08;36.78;;;;;;;18.34;100.00;99731.72;5031960;28;20021;-72
2022/11/05 10:55:38;;;;;;;46.88;36.50;;;;;;;18.96;100.00;99799.78;5031519;28;20033;-72
2022/11/05 10:58:14;;;;;;;48.40;37.08;;;;;;;18.84;100.00;99805.72;5032710;28;20095;-72
2022/11/05 11:00:42;;;;;;;48.10;36.63;;;;;;;18.66;100.00;99810.31;5032580;28;20068;-72
2022/11/05 11:03:34;;;;;;;54.53;37.95;;;;;;;19.00;100.00;99794.34;5032280;28;20495;-72
2022/11/05 11:06:03;;;;;;;46.63;36.03;;;;;;;18.67;100.00;99752.75;5032988;28;20116;-72
2022/11/05 11:08:32;;;;;;;49.78;36.10;;;;;;;18.72;100.00;99747.28;5032488;28;20033;-72
2022/11/05 11:11:04;;;;;;;47.55;35.97;;;;;;;19.32;100.00;99788.81;5030705;28;20450;-72
2022/11/05 11:13:47;;;;;;;45.45;35.67;;;;;;;18.56;100.00;99777.53;5032775;28;20034;-73
2022/11/05 11:16:15;;;;;;;49.10;36.72;;;;;;;19.08;100.00;99790.41;5030981;28;20040;-72
2022/11/05 11:18:42;;;;;;;46.33;36.50;;;;;;;18.94;100.00;99793.91;5031125;28;20420;-72
2022/11/05 11:21:19;;;;;;;48.40;36.28;;;;;;;19.55;100.00;99791.50;5032582;28;20091;-70
2022/11/05 11:24:01;;;;;;;47.92;35.30;;;;;;;19.28;100.00;99734.03;5031279;28;20033;-72
2022/11/05 11:26:42;;;;;;;44.72;34.88;;;;;;;19.39;100.00;99775.41;5032432;28;20094;-72
2022/11/05 11:29:26;;;;;;;44.07;35.93;;;;;;;19.44;100.00;99739.00;5032266;28;20033;-71
2022/11/05 11:31:57;;;;;;;45.78;35.90;;;;;;;19.14;100.00;99777.97;5032043;28;20065;-70
2022/11/05 11:34:33;;;;;;;45.75;34.97;;;;;;;19.27;100.00;99771.09;5030423;28;20123;-72
2022/11/05 11:37:13;;;;;;;47.00;35.17;;;;;;;19.19;100.00;99744.16;5032192;28;20077;-71
2022/11/05 11:39:42;;;;;;;45.65;36.85;;;;;;;19.46;100.00;99761.19;5032103;28;20087;-70
2022/11/05 11:42:30;;;;;;;44.70;34.75;;;;;;;19.97;100.00;99764.50;5030621;28;20033;-70
2022/11/05 11:44:58;;;;;;;50.53;36.40;;;;;;;19.65;100.00;99763.34;5030525;28;20045;-71
2022/11/05 11:47:26;;;;;;;52.80;37.03;;;;;;;19.51;100.00;99719.63;5032026;28;20038;-71
2022/11/05 11:49:53;;;;;;;47.42;36.58;;;;;;;19.76;100.00;99771.19;5030689;28;20491;-72
2022/11/05 11:52:33;;;;;;;48.80;36.10;;;;;;;19.68;100.00;99756.22;5031994;28;20025;-70
2022/11/05 11:55:10;;;;;;;44.78;35.97;;;;;;;20.12;100.00;99772.94;5030058;28;20128;-72
2022/11/05 11:57:45;;;;;;;45.10;35.35;;;;;;;20.18;100.00;99762.19;5031911;28;20087;-71
2022/11/05 12:00:12;;;;;;;44.85;35.60;;;;;;;19.89;100.00;99705.69;5031727;28;20029;-72
2022/11/05 12:02:54;;;;;;;46.53;35.78;;;;;;;20.10;100.00;99767.06;5031737;28;20147;-71